sensor_id;sensor_type;location;lat;lon;timestamp;P1;durP1;ratioP1;P2;durP2;ratioP2
72493;SDS011;60520;49.182;-0.348;2022-07-06T00:02:00;1.17;;;0.68;;
72493;SDS011;60520;49.182;-0.348;2022-07-06T00:04:27;1.13;;;0.63;;
72493;SDS011;60520;49.182;-0.348;2022-07-06T00:06:56;0.93;;;0.40;;
72493;SDS011;60520;49.182;-0.348;2022-07-06T00:09:23;0.60;;;0.50;;
72493;SDS011;60520;49.182;-0.348;2022-07-06T00:11:50;1.08;;;0.70;;
72493;SDS011;60520;49.182;-0.348;2022-07-06T00:14:17;0.65;;;0.50;;
72493;SDS011;60520;49.182;-0.348;2022-07-06T00:16:44;0.70;;;0.50;;
72493;SDS011;60520;49.182;-0.348;2022-07-06T00:19:12;0.88;;;0.60;;
72493;SDS011;60520;49.182;-0.348;2022-07-06T00:21:39;1.90;;;0.77;;
72493;SDS011;60520;49.182;-0.348;2022-07-06T00:24:07;0.82;;;0.60;;
72493;SDS011;60520;49.182;-0.348;2022-07-06T00:26:35;0.98;;;0.60;;
72493;SDS011;60520;49.182;-0.348;2022-07-06T00:29:02;1.02;;;0.60;;
72493;SDS011;60520;49.182;-0.348;2022-07-06T00:31:29;1.30;;;0.55;;
72493;SDS011;60520;49.182;-0.348;2022-07-06T00:33:56;1.60;;;0.70;;
72493;SDS011;60520;49.182;-0.348;2022-07-06T00:36:23;0.90;;;0.60;;
72493;SDS011;60520;49.182;-0.348;2022-07-06T00:38:50;1.42;;;0.60;;
72493;SDS011;60520;49.182;-0.348;2022-07-06T00:41:19;1.15;;;0.60;;
72493;SDS011;60520;49.182;-0.348;2022-07-06T00:43:46;1.05;;;0.52;;
72493;SDS011;60520;49.182;-0.348;2022-07-06T00:46:13;1.15;;;0.63;;
72493;SDS011;60520;49.182;-0.348;2022-07-06T00:48:41;1.40;;;0.60;;
72493;SDS011;60520;49.182;-0.348;2022-07-06T00:51:08;0.82;;;0.50;;
72493;SDS011;60520;49.182;-0.348;2022-07-06T00:53:35;0.93;;;0.45;;
72493;SDS011;60520;49.182;-0.348;2022-07-06T00:56:03;1.42;;;0.60;;
72493;SDS011;60520;49.182;-0.348;2022-07-06T00:58:31;1.50;;;0.52;;
72493;SDS011;60520;49.182;-0.348;2022-07-06T01:00:58;1.55;;;0.70;;
72493;SDS011;60520;49.182;-0.348;2022-07-06T01:03:25;1.60;;;0.77;;
72493;SDS011;60520;49.182;-0.348;2022-07-06T01:05:53;1.35;;;0.60;;
72493;SDS011;60520;49.182;-0.348;2022-07-06T01:08:20;1.40;;;0.60;;
72493;SDS011;60520;49.182;-0.348;2022-07-06T01:10:47;1.10;;;0.60;;
72493;SDS011;60520;49.182;-0.348;2022-07-06T01:13:14;1.23;;;0.55;;
72493;SDS011;60520;49.182;-0.348;2022-07-06T01:15:43;0.75;;;0.55;;
72493;SDS011;60520;49.182;-0.348;2022-07-06T01:18:10;1.98;;;0.60;;
72493;SDS011;60520;49.182;-0.348;2022-07-06T01:20:39;1.75;;;0.60;;
72493;SDS011;60520;49.182;-0.348;2022-07-06T01:23:06;0.93;;;0.60;;
72493;SDS011;60520;49.182;-0.348;2022-07-06T01:25:33;0.70;;;0.50;;
72493;SDS011;60520;49.182;-0.348;2022-07-06T01:28:00;1.65;;;0.70;;
72493;SDS011;60520;49.182;-0.348;2022-07-06T01:30:27;1.30;;;0.60;;
72493;SDS011;60520;49.182;-0.348;2022-07-06T01:32:55;0.73;;;0.63;;
72493;SDS011;60520;49.182;-0.348;2022-07-06T01:35:22;1.15;;;0.70;;
72493;SDS011;60520;49.182;-0.348;2022-07-06T01:37:51;0.63;;;0.60;;
72493;SDS011;60520;49.182;-0.348;2022-07-06T01:40:18;1.42;;;0.57;;
72493;SDS011;60520;49.182;-0.348;2022-07-06T01:42:45;0.98;;;0.55;;
72493;SDS011;60520;49.182;-0.348;2022-07-06T01:45:12;1.80;;;0.70;;
72493;SDS011;60520;49.182;-0.348;2022-07-06T01:47:39;1.17;;;0.60;;
72493;SDS011;60520;49.182;-0.348;2022-07-06T01:50:07;0.80;;;0.52;;
72493;SDS011;60520;49.182;-0.348;2022-07-06T01:52:35;1.38;;;0.68;;
72493;SDS011;60520;49.182;-0.348;2022-07-06T01:55:04;1.13;;;0.50;;
72493;SDS011;60520;49.182;-0.348;2022-07-06T01:57:31;0.95;;;0.70;;
72493;SDS011;60520;49.182;-0.348;2022-07-06T01:59:58;1.25;;;0.57;;
72493;SDS011;60520;49.182;-0.348;2022-07-06T02:02:26;2.05;;;0.80;;
72493;SDS011;60520;49.182;-0.348;2022-07-06T02:04:53;1.23;;;0.63;;
72493;SDS011;60520;49.182;-0.348;2022-07-06T02:07:20;1.23;;;0.70;;
72493;SDS011;60520;49.182;-0.348;2022-07-06T02:09:47;0.82;;;0.60;;
72493;SDS011;60520;49.182;-0.348;2022-07-06T02:12:15;1.08;;;0.50;;
72493;SDS011;60520;49.182;-0.348;2022-07-06T02:14:42;0.73;;;0.50;;
72493;SDS011;60520;49.182;-0.348;2022-07-06T02:17:10;1.45;;;0.63;;
72493;SDS011;60520;49.182;-0.348;2022-07-06T02:19:37;1.13;;;0.70;;
72493;SDS011;60520;49.182;-0.348;2022-07-06T02:22:04;1.35;;;0.70;;
72493;SDS011;60520;49.182;-0.348;2022-07-06T02:24:31;1.58;;;0.70;;
72493;SDS011;60520;49.182;-0.348;2022-07-06T02:26:58;1.08;;;0.60;;
72493;SDS011;60520;49.182;-0.348;2022-07-06T02:29:26;1.60;;;0.60;;
72493;SDS011;60520;49.182;-0.348;2022-07-06T02:31:54;1.38;;;0.70;;
72493;SDS011;60520;49.182;-0.348;2022-07-06T02:34:21;2.50;;;0.80;;
72493;SDS011;60520;49.182;-0.348;2022-07-06T02:36:48;1.02;;;0.70;;
72493;SDS011;60520;49.182;-0.348;2022-07-06T02:39:15;1.17;;;0.70;;
72493;SDS011;60520;49.182;-0.348;2022-07-06T02:41:42;0.75;;;0.52;;
72493;SDS011;60520;49.182;-0.348;2022-07-06T02:44:09;1.10;;;0.60;;
72493;SDS011;60520;49.182;-0.348;2022-07-06T02:46:38;1.48;;;0.60;;
72493;SDS011;60520;49.182;-0.348;2022-07-06T02:49:05;1.00;;;0.60;;
72493;SDS011;60520;49.182;-0.348;2022-07-06T02:51:32;1.88;;;0.80;;
72493;SDS011;60520;49.182;-0.348;2022-07-06T02:53:59;2.17;;;0.60;;
72493;SDS011;60520;49.182;-0.348;2022-07-06T02:56:26;1.52;;;0.80;;
72493;SDS011;60520;49.182;-0.348;2022-07-06T02:58:54;0.68;;;0.50;;
72493;SDS011;60520;49.182;-0.348;2022-07-06T03:01:21;1.13;;;0.60;;
72493;SDS011;60520;49.182;-0.348;2022-07-06T03:03:49;1.20;;;0.75;;
72493;SDS011;60520;49.182;-0.348;2022-07-06T03:06:16;1.05;;;0.60;;
72493;SDS011;60520;49.182;-0.348;2022-07-06T03:08:43;1.20;;;0.57;;
72493;SDS011;60520;49.182;-0.348;2022-07-06T03:11:10;1.30;;;0.60;;
72493;SDS011;60520;49.182;-0.348;2022-07-06T03:13:38;1.10;;;0.60;;
72493;SDS011;60520;49.182;-0.348;2022-07-06T03:16:05;1.55;;;0.65;;
72493;SDS011;60520;49.182;-0.348;2022-07-06T03:18:32;1.35;;;0.68;;
72493;SDS011;60520;49.182;-0.348;2022-07-06T03:21:00;1.42;;;0.60;;
72493;SDS011;60520;49.182;-0.348;2022-07-06T03:23:29;0.90;;;0.52;;
72493;SDS011;60520;49.182;-0.348;2022-07-06T03:25:56;1.15;;;0.65;;
72493;SDS011;60520;49.182;-0.348;2022-07-06T03:28:23;1.88;;;0.60;;
72493;SDS011;60520;49.182;-0.348;2022-07-06T03:30:50;0.73;;;0.50;;
72493;SDS011;60520;49.182;-0.348;2022-07-06T03:33:18;1.05;;;0.47;;
72493;SDS011;60520;49.182;-0.348;2022-07-06T03:35:45;1.38;;;0.70;;
72493;SDS011;60520;49.182;-0.348;2022-07-06T03:38:13;1.17;;;0.57;;
72493;SDS011;60520;49.182;-0.348;2022-07-06T03:40:40;0.68;;;0.50;;
72493;SDS011;60520;49.182;-0.348;2022-07-06T03:43:07;0.80;;;0.50;;
72493;SDS011;60520;49.182;-0.348;2022-07-06T03:45:34;1.00;;;0.70;;
72493;SDS011;60520;49.182;-0.348;2022-07-06T03:48:02;1.35;;;0.60;;
72493;SDS011;60520;49.182;-0.348;2022-07-06T03:50:29;0.77;;;0.50;;
72493;SDS011;60520;49.182;-0.348;2022-07-06T03:52:56;1.27;;;0.70;;
72493;SDS011;60520;49.182;-0.348;2022-07-06T03:55:24;1.08;;;0.63;;
72493;SDS011;60520;49.182;-0.348;2022-07-06T03:57:51;1.27;;;0.70;;
72493;SDS011;60520;49.182;-0.348;2022-07-06T04:00:18;1.13;;;0.52;;
72493;SDS011;60520;49.182;-0.348;2022-07-06T04:02:46;1.52;;;0.70;;
72493;SDS011;60520;49.182;-0.348;2022-07-06T04:05:13;1.48;;;0.70;;
72493;SDS011;60520;49.182;-0.348;2022-07-06T04:07:40;1.88;;;0.60;;
72493;SDS011;60520;49.182;-0.348;2022-07-06T04:10:07;2.17;;;0.70;;
72493;SDS011;60520;49.182;-0.348;2022-07-06T04:12:40;0.68;;;0.55;;
72493;SDS011;60520;49.182;-0.348;2022-07-06T04:15:08;1.45;;;0.80;;
72493;SDS011;60520;49.182;-0.348;2022-07-06T04:17:35;0.90;;;0.60;;
72493;SDS011;60520;49.182;-0.348;2022-07-06T04:20:25;1.55;;;0.70;;
72493;SDS011;60520;49.182;-0.348;2022-07-06T04:22:53;2.50;;;0.80;;
72493;SDS011;60520;49.182;-0.348;2022-07-06T04:25:20;1.58;;;0.63;;
72493;SDS011;60520;49.182;-0.348;2022-07-06T04:27:48;1.10;;;0.63;;
72493;SDS011;60520;49.182;-0.348;2022-07-06T04:30:16;0.90;;;0.70;;
72493;SDS011;60520;49.182;-0.348;2022-07-06T04:32:43;1.25;;;0.70;;
72493;SDS011;60520;49.182;-0.348;2022-07-06T04:35:10;1.63;;;0.98;;
72493;SDS011;60520;49.182;-0.348;2022-07-06T04:37:37;1.38;;;0.80;;
72493;SDS011;60520;49.182;-0.348;2022-07-06T04:40:04;2.05;;;0.77;;
72493;SDS011;60520;49.182;-0.348;2022-07-06T04:42:32;0.90;;;0.60;;
72493;SDS011;60520;49.182;-0.348;2022-07-06T04:45:00;0.65;;;0.60;;
72493;SDS011;60520;49.182;-0.348;2022-07-06T04:47:27;0.88;;;0.65;;
72493;SDS011;60520;49.182;-0.348;2022-07-06T04:49:54;0.95;;;0.60;;
72493;SDS011;60520;49.182;-0.348;2022-07-06T04:52:21;1.23;;;0.60;;
72493;SDS011;60520;49.182;-0.348;2022-07-06T04:54:48;0.93;;;0.70;;
72493;SDS011;60520;49.182;-0.348;2022-07-06T04:57:16;1.45;;;0.80;;
72493;SDS011;60520;49.182;-0.348;2022-07-06T04:59:43;2.15;;;0.80;;
72493;SDS011;60520;49.182;-0.348;2022-07-06T05:02:11;1.77;;;0.70;;
72493;SDS011;60520;49.182;-0.348;2022-07-06T05:04:38;2.47;;;0.73;;
72493;SDS011;60520;49.182;-0.348;2022-07-06T05:07:06;1.30;;;0.60;;
72493;SDS011;60520;49.182;-0.348;2022-07-06T05:09:33;1.65;;;0.80;;
72493;SDS011;60520;49.182;-0.348;2022-07-06T05:12:00;1.58;;;0.80;;
72493;SDS011;60520;49.182;-0.348;2022-07-06T05:14:27;1.65;;;0.80;;
72493;SDS011;60520;49.182;-0.348;2022-07-06T05:16:54;1.33;;;0.77;;
72493;SDS011;60520;49.182;-0.348;2022-07-06T05:19:22;1.67;;;0.68;;
72493;SDS011;60520;49.182;-0.348;2022-07-06T05:21:50;0.90;;;0.75;;
72493;SDS011;60520;49.182;-0.348;2022-07-06T05:24:17;1.05;;;0.60;;
72493;SDS011;60520;49.182;-0.348;2022-07-06T05:26:44;1.10;;;0.50;;
72493;SDS011;60520;49.182;-0.348;2022-07-06T05:29:11;1.42;;;0.60;;
72493;SDS011;60520;49.182;-0.348;2022-07-06T05:31:39;1.23;;;0.68;;
72493;SDS011;60520;49.182;-0.348;2022-07-06T05:34:06;2.25;;;0.73;;
72493;SDS011;60520;49.182;-0.348;2022-07-06T05:36:34;0.60;;;0.50;;
72493;SDS011;60520;49.182;-0.348;2022-07-06T05:39:01;0.73;;;0.63;;
72493;SDS011;60520;49.182;-0.348;2022-07-06T05:41:28;1.05;;;0.70;;
72493;SDS011;60520;49.182;-0.348;2022-07-06T05:43:56;0.80;;;0.60;;
72493;SDS011;60520;49.182;-0.348;2022-07-06T05:46:23;1.17;;;0.60;;
72493;SDS011;60520;49.182;-0.348;2022-07-06T05:48:50;1.30;;;0.70;;
72493;SDS011;60520;49.182;-0.348;2022-07-06T05:51:36;0.65;;;0.50;;
72493;SDS011;60520;49.182;-0.348;2022-07-06T05:54:03;0.73;;;0.50;;
72493;SDS011;60520;49.182;-0.348;2022-07-06T05:56:30;0.77;;;0.50;;
72493;SDS011;60520;49.182;-0.348;2022-07-06T05:58:57;0.93;;;0.75;;
72493;SDS011;60520;49.182;-0.348;2022-07-06T06:01:24;0.85;;;0.60;;
72493;SDS011;60520;49.182;-0.348;2022-07-06T06:03:52;1.20;;;0.68;;
72493;SDS011;60520;49.182;-0.348;2022-07-06T06:06:19;0.95;;;0.60;;
72493;SDS011;60520;49.182;-0.348;2022-07-06T06:08:47;1.20;;;0.68;;
72493;SDS011;60520;49.182;-0.348;2022-07-06T06:11:15;1.90;;;0.77;;
72493;SDS011;60520;49.182;-0.348;2022-07-06T06:13:42;2.35;;;0.70;;
72493;SDS011;60520;49.182;-0.348;2022-07-06T06:16:09;1.48;;;0.73;;
72493;SDS011;60520;49.182;-0.348;2022-07-06T06:18:36;1.30;;;0.70;;
72493;SDS011;60520;49.182;-0.348;2022-07-06T06:21:03;1.13;;;0.68;;
72493;SDS011;60520;49.182;-0.348;2022-07-06T06:23:30;0.70;;;0.60;;
72493;SDS011;60520;49.182;-0.348;2022-07-06T06:25:59;1.45;;;0.60;;
72493;SDS011;60520;49.182;-0.348;2022-07-06T06:28:26;0.93;;;0.60;;
72493;SDS011;60520;49.182;-0.348;2022-07-06T06:30:53;1.00;;;0.55;;
72493;SDS011;60520;49.182;-0.348;2022-07-06T06:33:20;2.10;;;0.63;;
72493;SDS011;60520;49.182;-0.348;2022-07-06T06:35:48;0.93;;;0.50;;
72493;SDS011;60520;49.182;-0.348;2022-07-06T06:38:15;1.23;;;0.50;;
72493;SDS011;60520;49.182;-0.348;2022-07-06T06:40:43;0.63;;;0.47;;
72493;SDS011;60520;49.182;-0.348;2022-07-06T06:43:11;2.38;;;0.60;;
72493;SDS011;60520;49.182;-0.348;2022-07-06T06:45:38;1.05;;;0.60;;
72493;SDS011;60520;49.182;-0.348;2022-07-06T06:48:06;1.20;;;0.63;;
72493;SDS011;60520;49.182;-0.348;2022-07-06T06:50:33;1.23;;;0.55;;
72493;SDS011;60520;49.182;-0.348;2022-07-06T06:53:01;0.93;;;0.60;;
72493;SDS011;60520;49.182;-0.348;2022-07-06T06:55:29;1.13;;;0.70;;
72493;SDS011;60520;49.182;-0.348;2022-07-06T06:57:56;1.10;;;0.60;;
72493;SDS011;60520;49.182;-0.348;2022-07-06T07:00:25;0.77;;;0.50;;
72493;SDS011;60520;49.182;-0.348;2022-07-06T07:02:52;0.93;;;0.40;;
72493;SDS011;60520;49.182;-0.348;2022-07-06T07:05:19;1.65;;;0.73;;
72493;SDS011;60520;49.182;-0.348;2022-07-06T07:07:46;0.70;;;0.70;;
72493;SDS011;60520;49.182;-0.348;2022-07-06T07:10:13;1.20;;;0.60;;
72493;SDS011;60520;49.182;-0.348;2022-07-06T07:12:44;1.00;;;0.60;;
72493;SDS011;60520;49.182;-0.348;2022-07-06T07:15:11;0.80;;;0.50;;
72493;SDS011;60520;49.182;-0.348;2022-07-06T07:17:40;0.90;;;0.40;;
72493;SDS011;60520;49.182;-0.348;2022-07-06T07:20:08;1.42;;;0.40;;
72493;SDS011;60520;49.182;-0.348;2022-07-06T07:22:35;1.08;;;0.60;;
72493;SDS011;60520;49.182;-0.348;2022-07-06T07:25:03;0.98;;;0.60;;
72493;SDS011;60520;49.182;-0.348;2022-07-06T07:27:30;1.20;;;0.70;;
72493;SDS011;60520;49.182;-0.348;2022-07-06T07:29:57;1.13;;;0.65;;
72493;SDS011;60520;49.182;-0.348;2022-07-06T07:32:24;1.10;;;0.60;;
72493;SDS011;60520;49.182;-0.348;2022-07-06T07:34:53;0.77;;;0.57;;
72493;SDS011;60520;49.182;-0.348;2022-07-06T07:37:20;1.10;;;0.60;;
72493;SDS011;60520;49.182;-0.348;2022-07-06T07:39:47;0.80;;;0.50;;
72493;SDS011;60520;49.182;-0.348;2022-07-06T07:42:14;0.98;;;0.50;;
72493;SDS011;60520;49.182;-0.348;2022-07-06T07:44:41;1.52;;;0.60;;
72493;SDS011;60520;49.182;-0.348;2022-07-06T07:47:09;1.42;;;0.60;;
72493;SDS011;60520;49.182;-0.348;2022-07-06T07:49:36;1.63;;;0.70;;
72493;SDS011;60520;49.182;-0.348;2022-07-06T07:52:04;0.85;;;0.55;;
72493;SDS011;60520;49.182;-0.348;2022-07-06T07:54:32;1.17;;;0.55;;
72493;SDS011;60520;49.182;-0.348;2022-07-06T07:56:59;1.38;;;0.47;;
72493;SDS011;60520;49.182;-0.348;2022-07-06T07:59:26;0.63;;;0.50;;
72493;SDS011;60520;49.182;-0.348;2022-07-06T08:01:53;0.90;;;0.43;;
72493;SDS011;60520;49.182;-0.348;2022-07-06T08:04:20;1.58;;;0.50;;
72493;SDS011;60520;49.182;-0.348;2022-07-06T08:06:47;0.80;;;0.68;;
72493;SDS011;60520;49.182;-0.348;2022-07-06T08:09:16;1.15;;;0.60;;
72493;SDS011;60520;49.182;-0.348;2022-07-06T08:11:43;0.80;;;0.60;;
72493;SDS011;60520;49.182;-0.348;2022-07-06T08:14:11;0.75;;;0.50;;
72493;SDS011;60520;49.182;-0.348;2022-07-06T08:16:39;0.47;;;0.40;;
72493;SDS011;60520;49.182;-0.348;2022-07-06T08:19:06;0.98;;;0.50;;
72493;SDS011;60520;49.182;-0.348;2022-07-06T08:21:34;1.08;;;0.65;;
72493;SDS011;60520;49.182;-0.348;2022-07-06T08:24:01;0.82;;;0.57;;
72493;SDS011;60520;49.182;-0.348;2022-07-06T08:26:30;0.73;;;0.45;;
72493;SDS011;60520;49.182;-0.348;2022-07-06T08:28:57;0.63;;;0.43;;
72493;SDS011;60520;49.182;-0.348;2022-07-06T08:31:24;1.40;;;0.60;;
72493;SDS011;60520;49.182;-0.348;2022-07-06T08:33:52;0.93;;;0.60;;
72493;SDS011;60520;49.182;-0.348;2022-07-06T08:36:19;0.73;;;0.60;;
72493;SDS011;60520;49.182;-0.348;2022-07-06T08:38:46;1.73;;;0.70;;
72493;SDS011;60520;49.182;-0.348;2022-07-06T08:41:14;2.47;;;0.80;;
72493;SDS011;60520;49.182;-0.348;2022-07-06T08:43:43;1.60;;;0.90;;
72493;SDS011;60520;49.182;-0.348;2022-07-06T08:46:10;3.25;;;0.82;;
72493;SDS011;60520;49.182;-0.348;2022-07-06T08:48:40;2.13;;;0.70;;
72493;SDS011;60520;49.182;-0.348;2022-07-06T08:51:08;2.17;;;1.00;;
72493;SDS011;60520;49.182;-0.348;2022-07-06T08:53:35;3.67;;;1.00;;
72493;SDS011;60520;49.182;-0.348;2022-07-06T08:56:03;1.92;;;0.88;;
72493;SDS011;60520;49.182;-0.348;2022-07-06T08:58:30;5.47;;;0.68;;
72493;SDS011;60520;49.182;-0.348;2022-07-06T09:00:59;1.95;;;0.93;;
72493;SDS011;60520;49.182;-0.348;2022-07-06T09:03:27;1.35;;;0.73;;
72493;SDS011;60520;49.182;-0.348;2022-07-06T09:05:56;2.05;;;1.05;;
72493;SDS011;60520;49.182;-0.348;2022-07-06T09:08:24;2.67;;;0.90;;
72493;SDS011;60520;49.182;-0.348;2022-07-06T09:10:53;3.38;;;1.00;;
72493;SDS011;60520;49.182;-0.348;2022-07-06T09:13:20;1.40;;;0.88;;
72493;SDS011;60520;49.182;-0.348;2022-07-06T09:15:48;2.72;;;0.90;;
72493;SDS011;60520;49.182;-0.348;2022-07-06T09:18:16;2.25;;;0.80;;
72493;SDS011;60520;49.182;-0.348;2022-07-06T09:20:43;2.50;;;0.73;;
72493;SDS011;60520;49.182;-0.348;2022-07-06T09:23:14;2.22;;;0.90;;
72493;SDS011;60520;49.182;-0.348;2022-07-06T09:25:42;1.23;;;0.70;;
72493;SDS011;60520;49.182;-0.348;2022-07-06T09:28:14;1.48;;;0.80;;
72493;SDS011;60520;49.182;-0.348;2022-07-06T09:30:41;2.15;;;0.80;;
72493;SDS011;60520;49.182;-0.348;2022-07-06T09:33:09;1.45;;;0.70;;
72493;SDS011;60520;49.182;-0.348;2022-07-06T09:35:39;1.33;;;0.60;;
72493;SDS011;60520;49.182;-0.348;2022-07-06T09:38:08;2.53;;;0.70;;
72493;SDS011;60520;49.182;-0.348;2022-07-06T09:40:36;2.17;;;0.80;;
72493;SDS011;60520;49.182;-0.348;2022-07-06T09:43:08;2.15;;;0.70;;
72493;SDS011;60520;49.182;-0.348;2022-07-06T09:45:35;2.00;;;0.77;;
72493;SDS011;60520;49.182;-0.348;2022-07-06T09:48:06;2.20;;;0.75;;
72493;SDS011;60520;49.182;-0.348;2022-07-06T09:50:39;2.55;;;0.80;;
72493;SDS011;60520;49.182;-0.348;2022-07-06T09:53:06;2.35;;;0.95;;
72493;SDS011;60520;49.182;-0.348;2022-07-06T09:55:33;1.70;;;0.70;;
72493;SDS011;60520;49.182;-0.348;2022-07-06T09:58:00;4.30;;;0.70;;
72493;SDS011;60520;49.182;-0.348;2022-07-06T10:00:28;3.67;;;0.90;;
72493;SDS011;60520;49.182;-0.348;2022-07-06T10:02:55;4.45;;;0.90;;
72493;SDS011;60520;49.182;-0.348;2022-07-06T10:05:22;1.42;;;0.80;;
72493;SDS011;60520;49.182;-0.348;2022-07-06T10:07:56;1.50;;;0.70;;
72493;SDS011;60520;49.182;-0.348;2022-07-06T10:10:24;1.40;;;0.70;;
72493;SDS011;60520;49.182;-0.348;2022-07-06T10:12:51;1.80;;;0.77;;
72493;SDS011;60520;49.182;-0.348;2022-07-06T10:15:18;1.60;;;0.90;;
72493;SDS011;60520;49.182;-0.348;2022-07-06T10:17:46;1.30;;;0.98;;
72493;SDS011;60520;49.182;-0.348;2022-07-06T10:20:13;1.75;;;0.90;;
72493;SDS011;60520;49.182;-0.348;2022-07-06T10:22:41;2.17;;;0.82;;
72493;SDS011;60520;49.182;-0.348;2022-07-06T10:25:09;2.83;;;0.80;;
72493;SDS011;60520;49.182;-0.348;2022-07-06T10:27:36;2.20;;;1.20;;
72493;SDS011;60520;49.182;-0.348;2022-07-06T10:30:05;1.90;;;0.90;;
72493;SDS011;60520;49.182;-0.348;2022-07-06T10:32:32;1.40;;;0.90;;
72493;SDS011;60520;49.182;-0.348;2022-07-06T10:34:59;2.60;;;1.15;;
72493;SDS011;60520;49.182;-0.348;2022-07-06T10:37:27;2.83;;;1.02;;
72493;SDS011;60520;49.182;-0.348;2022-07-06T10:39:55;4.07;;;1.30;;
72493;SDS011;60520;49.182;-0.348;2022-07-06T10:42:57;3.65;;;1.13;;
72493;SDS011;60520;49.182;-0.348;2022-07-06T10:48:15;3.08;;;0.98;;
72493;SDS011;60520;49.182;-0.348;2022-07-06T10:50:46;2.45;;;1.20;;
72493;SDS011;60520;49.182;-0.348;2022-07-06T10:53:14;2.05;;;1.20;;
72493;SDS011;60520;49.182;-0.348;2022-07-06T10:55:42;2.05;;;1.05;;
72493;SDS011;60520;49.182;-0.348;2022-07-06T10:58:12;3.05;;;1.13;;
72493;SDS011;60520;49.182;-0.348;2022-07-06T11:00:49;4.25;;;1.20;;
72493;SDS011;60520;49.182;-0.348;2022-07-06T11:03:36;2.92;;;1.10;;
72493;SDS011;60520;49.182;-0.348;2022-07-06T11:06:05;2.95;;;1.30;;
72493;SDS011;60520;49.182;-0.348;2022-07-06T11:08:42;2.25;;;1.20;;
72493;SDS011;60520;49.182;-0.348;2022-07-06T11:11:12;2.78;;;1.27;;
72493;SDS011;60520;49.182;-0.348;2022-07-06T11:13:43;1.73;;;1.10;;
72493;SDS011;60520;49.182;-0.348;2022-07-06T11:16:14;3.05;;;1.55;;
72493;SDS011;60520;49.182;-0.348;2022-07-06T11:18:42;2.88;;;1.50;;
72493;SDS011;60520;49.182;-0.348;2022-07-06T11:21:16;1.95;;;1.27;;
72493;SDS011;60520;49.182;-0.348;2022-07-06T11:23:45;2.95;;;1.20;;
72493;SDS011;60520;49.182;-0.348;2022-07-06T11:26:12;1.90;;;1.38;;
72493;SDS011;60520;49.182;-0.348;2022-07-06T11:28:40;2.83;;;1.52;;
72493;SDS011;60520;49.182;-0.348;2022-07-06T11:31:08;4.30;;;1.60;;
72493;SDS011;60520;49.182;-0.348;2022-07-06T11:33:37;3.10;;;1.50;;
72493;SDS011;60520;49.182;-0.348;2022-07-06T11:36:11;3.55;;;1.70;;
72493;SDS011;60520;49.182;-0.348;2022-07-06T11:38:38;10.52;;;2.00;;
72493;SDS011;60520;49.182;-0.348;2022-07-06T11:41:05;2.35;;;1.55;;
72493;SDS011;60520;49.182;-0.348;2022-07-06T11:43:33;6.47;;;1.60;;
72493;SDS011;60520;49.182;-0.348;2022-07-06T11:46:00;4.13;;;1.25;;
72493;SDS011;60520;49.182;-0.348;2022-07-06T11:48:28;5.10;;;1.60;;
72493;SDS011;60520;49.182;-0.348;2022-07-06T11:50:59;6.63;;;1.60;;
72493;SDS011;60520;49.182;-0.348;2022-07-06T11:53:26;3.28;;;1.35;;
72493;SDS011;60520;49.182;-0.348;2022-07-06T11:55:53;3.53;;;1.30;;
72493;SDS011;60520;49.182;-0.348;2022-07-06T11:58:21;3.42;;;1.27;;
72493;SDS011;60520;49.182;-0.348;2022-07-06T12:01:02;4.30;;;1.30;;
72493;SDS011;60520;49.182;-0.348;2022-07-06T12:03:31;3.25;;;1.23;;
72493;SDS011;60520;49.182;-0.348;2022-07-06T12:05:59;3.95;;;1.40;;
72493;SDS011;60520;49.182;-0.348;2022-07-06T12:08:26;5.93;;;2.10;;
72493;SDS011;60520;49.182;-0.348;2022-07-06T12:10:54;7.47;;;1.70;;
72493;SDS011;60520;49.182;-0.348;2022-07-06T12:13:22;6.38;;;2.03;;
72493;SDS011;60520;49.182;-0.348;2022-07-06T12:15:49;2.95;;;1.38;;
72493;SDS011;60520;49.182;-0.348;2022-07-06T12:18:16;6.03;;;1.45;;
72493;SDS011;60520;49.182;-0.348;2022-07-06T12:20:45;5.22;;;1.67;;
72493;SDS011;60520;49.182;-0.348;2022-07-06T12:23:12;23.27;;;2.40;;
72493;SDS011;60520;49.182;-0.348;2022-07-06T12:25:39;38.95;;;3.63;;
72493;SDS011;60520;49.182;-0.348;2022-07-06T12:28:06;43.95;;;4.15;;
72493;SDS011;60520;49.182;-0.348;2022-07-06T12:30:48;61.17;;;5.88;;
72493;SDS011;60520;49.182;-0.348;2022-07-06T12:33:17;35.83;;;3.97;;
72493;SDS011;60520;49.182;-0.348;2022-07-06T12:35:46;40.33;;;4.57;;
72493;SDS011;60520;49.182;-0.348;2022-07-06T12:38:28;20.42;;;2.97;;
72493;SDS011;60520;49.182;-0.348;2022-07-06T12:40:55;12.00;;;1.58;;
72493;SDS011;60520;49.182;-0.348;2022-07-06T12:43:35;6.63;;;1.30;;
72493;SDS011;60520;49.182;-0.348;2022-07-06T12:48:50;9.60;;;1.80;;
72493;SDS011;60520;49.182;-0.348;2022-07-06T12:51:19;3.15;;;1.40;;
72493;SDS011;60520;49.182;-0.348;2022-07-06T12:53:46;19.15;;;2.00;;
72493;SDS011;60520;49.182;-0.348;2022-07-06T12:56:15;4.35;;;1.00;;
72493;SDS011;60520;49.182;-0.348;2022-07-06T12:58:59;1.85;;;0.90;;
72493;SDS011;60520;49.182;-0.348;2022-07-06T13:01:26;5.78;;;1.08;;
72493;SDS011;60520;49.182;-0.348;2022-07-06T13:03:54;4.07;;;1.30;;
72493;SDS011;60520;49.182;-0.348;2022-07-06T13:06:33;4.65;;;1.50;;
72493;SDS011;60520;49.182;-0.348;2022-07-06T13:09:02;8.82;;;1.67;;
72493;SDS011;60520;49.182;-0.348;2022-07-06T13:11:29;16.77;;;1.70;;
72493;SDS011;60520;49.182;-0.348;2022-07-06T13:13:58;17.95;;;1.42;;
72493;SDS011;60520;49.182;-0.348;2022-07-06T13:16:25;9.30;;;1.80;;
72493;SDS011;60520;49.182;-0.348;2022-07-06T13:18:59;10.15;;;1.30;;
72493;SDS011;60520;49.182;-0.348;2022-07-06T13:21:26;7.13;;;1.42;;
72493;SDS011;60520;49.182;-0.348;2022-07-06T13:23:58;11.88;;;1.75;;
72493;SDS011;60520;49.182;-0.348;2022-07-06T13:26:25;7.25;;;1.90;;
72493;SDS011;60520;49.182;-0.348;2022-07-06T13:28:52;11.45;;;1.70;;
72493;SDS011;60520;49.182;-0.348;2022-07-06T13:31:19;14.30;;;2.20;;
72493;SDS011;60520;49.182;-0.348;2022-07-06T13:33:46;8.18;;;1.27;;
72493;SDS011;60520;49.182;-0.348;2022-07-06T13:36:13;9.60;;;1.48;;
72493;SDS011;60520;49.182;-0.348;2022-07-06T13:38:41;6.22;;;1.38;;
72493;SDS011;60520;49.182;-0.348;2022-07-06T13:41:09;11.05;;;1.45;;
72493;SDS011;60520;49.182;-0.348;2022-07-06T13:43:36;8.45;;;1.38;;
72493;SDS011;60520;49.182;-0.348;2022-07-06T13:46:03;15.82;;;2.40;;
72493;SDS011;60520;49.182;-0.348;2022-07-06T13:48:31;4.90;;;1.13;;
72493;SDS011;60520;49.182;-0.348;2022-07-06T13:50:58;7.40;;;0.90;;
72493;SDS011;60520;49.182;-0.348;2022-07-06T13:53:25;5.25;;;0.73;;
72493;SDS011;60520;49.182;-0.348;2022-07-06T13:55:52;6.15;;;0.90;;
72493;SDS011;60520;49.182;-0.348;2022-07-06T13:58:21;7.90;;;0.90;;
72493;SDS011;60520;49.182;-0.348;2022-07-06T14:00:48;5.43;;;0.60;;
72493;SDS011;60520;49.182;-0.348;2022-07-06T14:03:15;3.72;;;0.63;;
72493;SDS011;60520;49.182;-0.348;2022-07-06T14:05:42;2.45;;;0.73;;
72493;SDS011;60520;49.182;-0.348;2022-07-06T14:08:10;1.58;;;0.52;;
72493;SDS011;60520;49.182;-0.348;2022-07-06T14:10:37;2.78;;;0.60;;
72493;SDS011;60520;49.182;-0.348;2022-07-06T14:13:04;1.95;;;0.40;;
72493;SDS011;60520;49.182;-0.348;2022-07-06T14:15:33;1.42;;;0.60;;
72493;SDS011;60520;49.182;-0.348;2022-07-06T14:18:00;2.47;;;0.57;;
72493;SDS011;60520;49.182;-0.348;2022-07-06T14:20:27;4.97;;;0.80;;
72493;SDS011;60520;49.182;-0.348;2022-07-06T14:22:54;8.27;;;0.82;;
72493;SDS011;60520;49.182;-0.348;2022-07-06T14:25:22;1.77;;;0.57;;
72493;SDS011;60520;49.182;-0.348;2022-07-06T14:27:49;2.75;;;0.40;;
72493;SDS011;60520;49.182;-0.348;2022-07-06T14:30:16;1.52;;;0.50;;
72493;SDS011;60520;49.182;-0.348;2022-07-06T14:32:44;2.15;;;0.63;;
72493;SDS011;60520;49.182;-0.348;2022-07-06T14:35:12;3.50;;;0.40;;
72493;SDS011;60520;49.182;-0.348;2022-07-06T14:37:39;2.50;;;0.50;;
72493;SDS011;60520;49.182;-0.348;2022-07-06T14:40:07;3.63;;;0.40;;
72493;SDS011;60520;49.182;-0.348;2022-07-06T14:42:34;1.58;;;0.55;;
72493;SDS011;60520;49.182;-0.348;2022-07-06T14:45:01;0.95;;;0.47;;